createdAt,value
2022-12-21T00:02:25.466Z,5.94
2022-12-21T00:04:52.129Z,16.81
2022-12-21T00:07:18.781Z,27.52
2022-12-21T00:09:45.319Z,5.30
2022-12-21T00:12:11.887Z,4.77
2022-12-21T00:14:38.510Z,8.92
2022-12-21T00:17:05.169Z,9.63
2022-12-21T00:19:31.811Z,7.88
2022-12-21T00:21:58.378Z,2.83
2022-12-21T00:24:24.967Z,2.55
2022-12-21T00:26:51.557Z,2.72
2022-12-21T00:29:18.117Z,6.04
2022-12-21T00:31:46.200Z,3.55
2022-12-21T00:34:14.400Z,2.84
2022-12-21T00:36:42.274Z,4.80
2022-12-21T00:39:08.810Z,3.16
2022-12-21T00:41:35.372Z,3.41
2022-12-21T00:44:01.920Z,4.46
2022-12-21T00:46:32.094Z,3.01
2022-12-21T00:48:59.588Z,2.90
2022-12-21T00:51:27.254Z,2.85
2022-12-21T00:53:54.783Z,2.61
2022-12-21T00:56:21.381Z,2.60
2022-12-21T00:58:47.949Z,2.45
2022-12-21T01:01:25.923Z,3.16
2022-12-21T01:03:53.245Z,2.69
2022-12-21T01:06:21.598Z,2.67
2022-12-21T01:08:48.129Z,2.95
2022-12-21T01:11:15.668Z,2.92
2022-12-21T01:13:42.241Z,3.20
2022-12-21T01:16:20.005Z,3.16
2022-12-21T01:18:46.894Z,3.11
2022-12-21T01:21:15.294Z,2.93
2022-12-21T01:23:41.847Z,3.41
2022-12-21T01:26:08.420Z,3.31
2022-12-21T01:28:35.002Z,3.38
2022-12-21T01:31:01.930Z,3.23
2022-12-21T01:33:28.583Z,3.32
2022-12-21T01:35:55.134Z,4.36
2022-12-21T01:38:21.716Z,3.44
2022-12-21T01:40:48.271Z,3.18
2022-12-21T01:43:40.323Z,5.67
2022-12-21T01:46:08.349Z,3.72
2022-12-21T01:48:35.185Z,3.50
2022-12-21T01:51:02.708Z,4.02
2022-12-21T01:53:31.471Z,3.83
2022-12-21T01:55:58.624Z,3.63
2022-12-21T01:58:26.200Z,3.43
2022-12-21T02:00:53.346Z,3.78
2022-12-21T02:03:21.013Z,4.26
2022-12-21T02:06:11.795Z,7.55
2022-12-21T02:08:38.371Z,3.61
2022-12-21T02:11:04.978Z,10.82
2022-12-21T02:13:31.515Z,3.85
2022-12-21T02:16:00.796Z,10.02
2022-12-21T02:18:42.654Z,4.53
2022-12-21T02:21:15.279Z,3.77
2022-12-21T02:24:00.047Z,3.14
2022-12-21T02:27:03.742Z,3.18
2022-12-21T02:30:00.480Z,3.39
2022-12-21T02:32:53.202Z,3.28
2022-12-21T02:35:31.027Z,3.55
2022-12-21T02:38:06.556Z,3.69
2022-12-21T02:40:46.037Z,3.41
2022-12-21T02:43:38.665Z,3.60
2022-12-21T02:46:09.870Z,3.80
2022-12-21T02:48:44.179Z,3.68
2022-12-21T02:51:14.077Z,3.98
2022-12-21T02:53:40.631Z,3.96
2022-12-21T02:56:17.490Z,4.06
2022-12-21T02:58:44.043Z,4.11
2022-12-21T03:01:23.204Z,4.21
2022-12-21T03:04:02.174Z,3.66
2022-12-21T03:07:01.207Z,4.03
2022-12-21T03:09:44.689Z,4.32
2022-12-21T03:12:29.865Z,4.05
2022-12-21T03:14:59.191Z,4.07
2022-12-21T03:18:01.038Z,4.20
2022-12-21T03:20:46.062Z,4.02
2022-12-21T03:23:14.575Z,4.44
2022-12-21T03:25:47.241Z,4.20
2022-12-21T03:28:16.044Z,4.03
2022-12-21T03:30:46.492Z,4.17
2022-12-21T03:33:15.139Z,4.20
2022-12-21T03:35:47.222Z,4.16
2022-12-21T03:38:17.574Z,3.93
2022-12-21T03:40:44.148Z,4.14
2022-12-21T03:43:17.438Z,4.01
2022-12-21T03:45:47.208Z,4.04
2022-12-21T03:48:41.494Z,3.81
2022-12-21T03:51:14.675Z,3.83
2022-12-21T03:53:45.158Z,3.57
2022-12-21T03:56:13.909Z,3.56
2022-12-21T03:58:40.445Z,3.69
2022-12-21T04:01:33.447Z,3.76
2022-12-21T04:04:28.374Z,3.51
2022-12-21T04:06:54.957Z,3.60
2022-12-21T04:09:21.721Z,3.80
2022-12-21T04:11:48.279Z,3.47
2022-12-21T04:14:14.895Z,3.25
2022-12-21T04:16:41.616Z,3.11
2022-12-21T04:19:08.260Z,3.25
2022-12-21T04:21:34.965Z,3.52
2022-12-21T04:24:01.492Z,3.58
2022-12-21T04:26:29.222Z,3.38
2022-12-21T04:28:55.797Z,3.24
2022-12-21T04:31:22.400Z,3.55
2022-12-21T04:33:48.995Z,3.63
2022-12-21T04:36:15.531Z,3.34
2022-12-21T04:38:43.274Z,3.77
2022-12-21T04:41:09.970Z,3.57
2022-12-21T04:43:37.242Z,3.59
2022-12-21T04:46:08.127Z,3.43
2022-12-21T04:48:34.841Z,3.59
2022-12-21T04:51:08.235Z,3.59
2022-12-21T04:53:34.799Z,3.67
2022-12-21T04:56:01.373Z,3.44
2022-12-21T04:58:27.923Z,3.57
2022-12-21T05:00:54.495Z,3.66
2022-12-21T05:03:21.178Z,3.45
2022-12-21T05:05:47.795Z,3.43
2022-12-21T05:08:17.933Z,3.42
2022-12-21T05:10:47.694Z,3.40
2022-12-21T05:13:14.261Z,3.50
2022-12-21T05:15:40.816Z,3.13
2022-12-21T05:18:07.374Z,3.53
2022-12-21T05:20:33.917Z,3.73
2022-12-21T05:23:00.460Z,3.70
2022-12-21T05:25:27.061Z,3.78
2022-12-21T05:27:53.682Z,3.52
2022-12-21T05:30:20.346Z,3.40
2022-12-21T05:32:46.954Z,3.60
2022-12-21T05:35:16.671Z,3.67
2022-12-21T05:37:43.744Z,3.78
2022-12-21T05:40:10.623Z,3.71
2022-12-21T05:45:04.347Z,3.79
2022-12-21T05:47:30.984Z,3.83
2022-12-21T05:49:57.630Z,3.71
2022-12-21T05:52:24.269Z,3.49
2022-12-21T05:54:50.962Z,3.92
2022-12-21T05:57:17.656Z,3.95
2022-12-21T05:59:44.296Z,3.72
2022-12-21T06:02:11.154Z,3.75
2022-12-21T06:04:37.914Z,3.69
2022-12-21T06:07:04.705Z,3.64
2022-12-21T06:09:31.309Z,3.58
2022-12-21T06:11:57.956Z,3.75
2022-12-21T06:14:24.624Z,3.48
2022-12-21T06:16:51.296Z,3.76
2022-12-21T06:19:17.952Z,3.64
2022-12-21T06:21:44.621Z,3.47
2022-12-21T06:24:11.489Z,3.28
2022-12-21T06:26:40.619Z,3.37
2022-12-21T06:29:11.633Z,3.59
2022-12-21T06:31:38.312Z,3.09
2022-12-21T06:34:05.015Z,3.08
2022-12-21T06:36:34.644Z,3.71
2022-12-21T06:39:01.374Z,3.54
2022-12-21T06:41:28.037Z,3.19
2022-12-21T06:43:54.656Z,3.42
2022-12-21T06:46:21.344Z,3.29
2022-12-21T06:48:48.193Z,3.41
2022-12-21T06:51:22.523Z,3.44
2022-12-21T06:53:50.278Z,3.43
2022-12-21T06:56:24.348Z,3.38
2022-12-21T06:58:51.884Z,3.32
2022-12-21T07:01:20.554Z,3.24
2022-12-21T07:03:47.248Z,3.10
2022-12-21T07:06:15.869Z,3.08
2022-12-21T07:08:42.678Z,3.44
2022-12-21T07:11:14.015Z,3.14
2022-12-21T07:13:42.447Z,3.25
2022-12-21T07:16:09.359Z,3.55
2022-12-21T07:18:36.024Z,3.04
2022-12-21T07:21:05.057Z,3.24
2022-12-21T07:23:32.791Z,2.99
2022-12-21T07:26:04.644Z,3.38
2022-12-21T07:28:34.987Z,3.35
2022-12-21T07:31:09.960Z,3.69
2022-12-21T07:33:37.369Z,3.73
2022-12-21T07:36:04.913Z,3.66
2022-12-21T07:38:34.999Z,4.07
2022-12-21T07:41:02.691Z,4.36
2022-12-21T07:43:29.854Z,4.13
2022-12-21T07:45:56.463Z,4.24
2022-12-21T07:48:30.233Z,4.09
2022-12-21T07:50:57.461Z,4.41
2022-12-21T07:53:24.097Z,4.53
2022-12-21T07:55:50.815Z,4.39
2022-12-21T07:58:17.474Z,4.34
2022-12-21T08:00:44.208Z,4.23
2022-12-21T08:03:11.109Z,4.29
2022-12-21T08:05:37.933Z,4.42
2022-12-21T08:08:04.736Z,4.19
2022-12-21T08:10:31.366Z,3.96
2022-12-21T08:12:57.998Z,3.94
2022-12-21T08:15:24.611Z,4.17
2022-12-21T08:17:51.270Z,3.94
2022-12-21T08:20:17.935Z,3.88
2022-12-21T08:22:44.649Z,4.18
2022-12-21T08:25:18.760Z,4.32
2022-12-21T08:27:45.389Z,4.86
2022-12-21T08:30:12.445Z,4.28
2022-12-21T08:32:39.183Z,4.32
2022-12-21T08:35:06.185Z,4.07
2022-12-21T08:37:32.811Z,4.01
2022-12-21T08:39:59.467Z,4.18
2022-12-21T08:42:31.825Z,3.92
2022-12-21T08:45:00.252Z,3.88
2022-12-21T08:47:26.916Z,3.77
2022-12-21T08:49:53.564Z,4.08
2022-12-21T08:52:20.242Z,3.89
2022-12-21T08:54:46.851Z,4.04
2022-12-21T08:57:13.488Z,4.44
2022-12-21T08:59:44.913Z,3.98
2022-12-21T09:02:14.812Z,4.20
2022-12-21T09:04:41.511Z,4.13
2022-12-21T09:07:08.160Z,3.90
2022-12-21T09:09:34.766Z,4.29
2022-12-21T09:12:01.722Z,4.50
2022-12-21T09:14:29.095Z,4.24
2022-12-21T09:16:55.778Z,4.57
2022-12-21T09:19:22.456Z,4.44
2022-12-21T09:21:49.058Z,4.34
2022-12-21T09:24:15.675Z,4.47
2022-12-21T09:26:42.282Z,4.39
2022-12-21T09:29:10.356Z,4.45
2022-12-21T09:31:37.014Z,4.36
2022-12-21T09:34:03.711Z,4.68
2022-12-21T09:36:30.364Z,4.59
2022-12-21T09:38:57.006Z,3.85
2022-12-21T09:41:29.607Z,4.08
2022-12-21T09:44:14.802Z,4.11
2022-12-21T09:46:42.203Z,5.14
2022-12-21T09:49:14.724Z,4.82
2022-12-21T09:51:53.375Z,4.97
2022-12-21T09:54:23.460Z,5.13
2022-12-21T09:56:51.144Z,5.15
2022-12-21T09:59:19.568Z,4.67
2022-12-21T10:02:04.965Z,4.60
2022-12-21T10:05:10.746Z,5.68
2022-12-21T10:08:02.858Z,9.45
2022-12-21T10:10:48.182Z,9.27
2022-12-21T10:13:40.887Z,9.45
2022-12-21T10:16:43.128Z,7.42
2022-12-21T10:19:52.512Z,6.23
2022-12-21T10:22:22.086Z,4.52
2022-12-21T10:24:51.136Z,4.32
2022-12-21T10:27:25.437Z,4.70
2022-12-21T10:29:55.981Z,4.32
2022-12-21T10:32:22.595Z,4.57
2022-12-21T10:34:50.194Z,4.40
2022-12-21T10:37:18.815Z,4.31
2022-12-21T10:39:46.366Z,4.37
2022-12-21T10:42:26.723Z,4.58
2022-12-21T10:44:53.410Z,3.85
2022-12-21T10:47:21.762Z,4.10
2022-12-21T10:50:22.541Z,4.27
2022-12-21T10:52:50.216Z,3.99
2022-12-21T10:55:19.517Z,34.03
2022-12-21T10:57:46.840Z,62.04
2022-12-21T11:00:27.672Z,43.49
2022-12-21T11:03:00.067Z,50.96
2022-12-21T11:05:34.412Z,45.32
2022-12-21T11:08:19.329Z,63.12
2022-12-21T11:10:52.983Z,47.41
2022-12-21T11:13:21.475Z,36.15
2022-12-21T11:16:08.025Z,28.23
2022-12-21T11:18:37.745Z,7.44
2022-12-21T11:21:05.579Z,4.85
2022-12-21T11:23:32.202Z,4.32
2022-12-21T11:25:58.901Z,4.43
2022-12-21T11:28:25.577Z,4.55
2022-12-21T11:30:56.603Z,4.58
2022-12-21T11:33:23.252Z,4.41
2022-12-21T11:36:13.007Z,4.12
2022-12-21T11:38:39.655Z,3.88
2022-12-21T11:41:35.613Z,3.80
2022-12-21T11:44:04.520Z,3.60
2022-12-21T11:46:50.029Z,3.22
2022-12-21T11:49:43.481Z,3.37
2022-12-21T11:52:35.152Z,3.25
2022-12-21T11:55:07.538Z,2.80
2022-12-21T11:57:48.503Z,2.81
2022-12-21T12:00:49.656Z,3.17
2022-12-21T12:03:19.235Z,3.20
2022-12-21T12:05:49.144Z,3.15
2022-12-21T12:08:38.793Z,3.39
2022-12-21T12:11:09.248Z,3.31
2022-12-21T12:14:00.679Z,4.21
2022-12-21T12:16:33.293Z,4.36
2022-12-21T12:19:21.759Z,4.32
2022-12-21T12:22:19.267Z,4.33
2022-12-21T12:24:58.034Z,4.54
2022-12-21T12:27:52.499Z,4.43
2022-12-21T12:30:23.183Z,4.48
2022-12-21T12:33:05.752Z,4.36
2022-12-21T12:35:51.051Z,5.08
2022-12-21T12:38:32.942Z,8.43
2022-12-21T12:41:26.910Z,6.02
2022-12-21T12:44:12.661Z,5.20
2022-12-21T12:47:01.068Z,4.96
2022-12-21T12:50:08.797Z,4.60
2022-12-21T12:52:54.715Z,5.46
2022-12-21T12:55:42.479Z,4.85
2022-12-21T12:58:14.417Z,4.86
2022-12-21T13:00:57.222Z,4.57
2022-12-21T13:04:00.534Z,4.36
2022-12-21T13:06:48.470Z,4.44
2022-12-21T13:09:44.033Z,5.94
2022-12-21T13:12:10.595Z,4.09
2022-12-21T13:14:45.833Z,4.59
2022-12-21T13:17:35.819Z,4.40
2022-12-21T13:20:04.774Z,4.28
2022-12-21T13:22:33.956Z,4.56
2022-12-21T13:25:03.419Z,5.30
2022-12-21T13:27:39.504Z,4.89
2022-12-21T13:30:12.495Z,4.68
2022-12-21T13:32:40.705Z,5.10
2022-12-21T13:35:26.587Z,5.19
2022-12-21T13:38:24.507Z,5.10
2022-12-21T13:41:11.286Z,5.54
2022-12-21T13:46:46.453Z,5.28
2022-12-21T13:49:40.697Z,5.11
2022-12-21T13:52:07.217Z,5.03
2022-12-21T13:54:52.886Z,5.41
2022-12-21T13:57:32.599Z,5.44
2022-12-21T14:00:21.384Z,5.38
2022-12-21T14:02:58.011Z,5.32
2022-12-21T14:05:29.931Z,5.39
2022-12-21T14:08:18.759Z,5.38
2022-12-21T14:11:10.574Z,5.41
2022-12-21T14:14:02.492Z,5.48
2022-12-21T14:16:34.944Z,5.24
2022-12-21T14:19:06.713Z,5.25
2022-12-21T14:21:34.260Z,5.21
2022-12-21T14:24:37.389Z,5.03
2022-12-21T14:27:18.917Z,4.90
2022-12-21T14:29:45.556Z,5.60
2022-12-21T14:32:12.898Z,5.04
2022-12-21T14:34:58.291Z,4.84
2022-12-21T14:37:28.924Z,5.03
2022-12-21T14:40:16.052Z,5.00
2022-12-21T14:42:42.595Z,5.00
2022-12-21T14:45:12.317Z,4.96
2022-12-21T14:47:46.401Z,4.91
2022-12-21T14:50:20.636Z,5.07
2022-12-21T14:53:24.893Z,5.19
2022-12-21T14:56:07.831Z,5.10
2022-12-21T14:58:42.622Z,4.94
2022-12-21T15:01:14.301Z,4.88
2022-12-21T15:03:42.466Z,5.26
2022-12-21T15:06:09.716Z,5.02
2022-12-21T15:08:41.421Z,4.91
2022-12-21T15:11:19.428Z,5.48
2022-12-21T15:14:04.116Z,4.93
2022-12-21T15:16:33.777Z,5.74
2022-12-21T15:19:12.403Z,5.03
2022-12-21T15:21:45.863Z,5.20
2022-12-21T15:24:40.356Z,5.05
2022-12-21T15:27:18.240Z,5.24
2022-12-21T15:29:52.191Z,5.24
2022-12-21T15:32:21.662Z,4.77
2022-12-21T15:34:51.118Z,5.63
2022-12-21T15:37:20.028Z,5.77
2022-12-21T15:39:46.657Z,5.43
2022-12-21T15:42:46.548Z,5.72
2022-12-21T15:45:38.600Z,7.96
2022-12-21T15:48:10.220Z,8.11
2022-12-21T15:50:38.161Z,11.40
2022-12-21T15:53:04.994Z,11.00
2022-12-21T15:55:33.343Z,10.41
2022-12-21T15:58:03.643Z,8.88
2022-12-21T16:00:30.634Z,9.16
2022-12-21T16:03:03.128Z,8.84
2022-12-21T16:05:31.686Z,9.67
2022-12-21T16:08:00.871Z,9.97
2022-12-21T16:10:31.484Z,9.63
2022-12-21T16:13:05.889Z,9.66
2022-12-21T16:15:39.453Z,8.86
2022-12-21T16:18:09.041Z,8.03
2022-12-21T16:20:55.858Z,8.17
2022-12-21T16:23:24.902Z,9.03
2022-12-21T16:25:52.606Z,7.03
2022-12-21T16:31:14.652Z,6.04
2022-12-21T16:33:42.685Z,6.69
2022-12-21T16:36:12.489Z,8.02
2022-12-21T16:38:39.289Z,8.33
2022-12-21T16:41:06.722Z,7.66
2022-12-21T16:43:34.718Z,7.60
2022-12-21T16:46:03.853Z,7.58
2022-12-21T16:48:45.647Z,7.25
2022-12-21T16:51:30.496Z,8.70
2022-12-21T16:53:57.098Z,8.96
2022-12-21T16:56:27.351Z,8.48
2022-12-21T16:59:00.627Z,10.61
2022-12-21T17:01:34.356Z,12.22
2022-12-21T17:04:03.238Z,12.78
2022-12-21T17:06:33.970Z,11.87
2022-12-21T17:09:00.956Z,11.34
2022-12-21T17:11:27.711Z,9.77
2022-12-21T17:13:54.513Z,10.06
2022-12-21T17:16:43.652Z,9.67
2022-12-21T17:19:23.303Z,8.42
2022-12-21T17:22:03.660Z,8.23
2022-12-21T17:24:38.977Z,7.89
2022-12-21T17:27:20.623Z,7.67
2022-12-21T17:29:47.313Z,7.80
2022-12-21T17:32:18.424Z,8.19
2022-12-21T17:34:45.589Z,8.15
2022-12-21T17:37:13.521Z,8.62
2022-12-21T17:39:40.137Z,8.38
2022-12-21T17:42:11.216Z,8.68
2022-12-21T17:44:42.781Z,8.79
2022-12-21T17:47:18.648Z,9.55
2022-12-21T17:49:45.257Z,12.34
2022-12-21T17:52:11.867Z,11.00
2022-12-21T17:54:38.507Z,11.21
2022-12-21T17:57:12.216Z,9.83
2022-12-21T17:59:38.882Z,9.74
2022-12-21T18:02:12.001Z,11.42
2022-12-21T18:04:38.894Z,12.05
2022-12-21T18:07:13.006Z,12.01
2022-12-21T18:09:40.138Z,11.91
2022-12-21T18:12:13.370Z,11.44
2022-12-21T18:14:40.074Z,12.42
2022-12-21T18:17:06.969Z,13.64
2022-12-21T18:19:33.742Z,14.29
2022-12-21T18:22:00.403Z,12.57
2022-12-21T18:24:27.056Z,12.91
2022-12-21T18:26:53.719Z,13.03
2022-12-21T18:29:20.379Z,12.68
2022-12-21T18:31:47.033Z,12.81
2022-12-21T18:34:15.501Z,15.29
2022-12-21T18:36:42.129Z,14.97
2022-12-21T18:39:11.619Z,15.02
2022-12-21T18:41:38.233Z,14.47
2022-12-21T18:44:05.930Z,14.36
2022-12-21T18:46:33.783Z,14.02
2022-12-21T18:49:02.759Z,13.69
2022-12-21T18:51:30.229Z,14.64
2022-12-21T18:53:57.095Z,14.81
2022-12-21T18:56:29.884Z,13.76
2022-12-21T18:58:56.551Z,15.14
2022-12-21T19:01:30.743Z,15.32
2022-12-21T19:03:57.564Z,13.43
2022-12-21T19:06:26.735Z,13.73
2022-12-21T19:08:54.401Z,13.59
2022-12-21T19:11:23.881Z,13.84
2022-12-21T19:13:50.590Z,14.27
2022-12-21T19:16:20.082Z,14.09
2022-12-21T19:18:46.762Z,13.23
2022-12-21T19:21:31.689Z,13.18
2022-12-21T19:24:03.396Z,14.73
2022-12-21T19:26:32.502Z,15.26
2022-12-21T19:31:26.517Z,12.79
2022-12-21T19:33:53.215Z,12.23
2022-12-21T19:36:20.916Z,12.22
2022-12-21T19:38:47.588Z,11.75
2022-12-21T19:41:14.234Z,11.97
2022-12-21T19:43:41.428Z,12.58
2022-12-21T19:46:15.564Z,12.51
2022-12-21T19:48:42.253Z,12.93
2022-12-21T19:51:10.381Z,13.43
2022-12-21T19:53:41.418Z,13.53
2022-12-21T19:56:14.287Z,14.51
2022-12-21T19:58:40.890Z,13.86
2022-12-21T20:01:07.644Z,13.89
2022-12-21T20:03:34.392Z,14.14
2022-12-21T20:06:01.032Z,15.20
2022-12-21T20:08:28.592Z,14.70
2022-12-21T20:10:55.533Z,15.35
2022-12-21T20:13:22.325Z,16.18
2022-12-21T20:15:57.723Z,16.06
2022-12-21T20:18:31.345Z,15.02
2022-12-21T20:20:58.024Z,16.51
2022-12-21T20:23:24.616Z,17.31
2022-12-21T20:25:51.289Z,18.48
2022-12-21T20:28:23.643Z,20.71
2022-12-21T20:30:50.566Z,18.63
2022-12-21T20:33:20.985Z,17.76
2022-12-21T20:35:55.932Z,17.95
2022-12-21T20:38:30.029Z,16.98
2022-12-21T20:41:01.762Z,16.43
2022-12-21T20:43:32.514Z,16.41
2022-12-21T20:45:59.168Z,16.28
2022-12-21T20:48:25.898Z,16.40
2022-12-21T20:50:52.520Z,16.89
2022-12-21T20:53:20.286Z,17.16
2022-12-21T20:55:46.955Z,16.05
2022-12-21T20:58:13.601Z,14.47
2022-12-21T21:00:40.812Z,15.42
2022-12-21T21:03:29.534Z,15.28
2022-12-21T21:05:56.317Z,15.43
2022-12-21T21:08:23.037Z,15.95
2022-12-21T21:10:49.875Z,14.87
2022-12-21T21:13:16.481Z,14.25
2022-12-21T21:15:43.137Z,13.83
2022-12-21T21:18:13.155Z,14.06
2022-12-21T21:20:45.696Z,13.91
2022-12-21T21:23:15.452Z,14.43
2022-12-21T21:25:43.147Z,14.75
2022-12-21T21:28:21.935Z,14.17
2022-12-21T21:30:49.853Z,14.27
2022-12-21T21:33:16.648Z,13.49
2022-12-21T21:35:43.680Z,12.13
2022-12-21T21:38:43.168Z,13.15
2022-12-21T21:41:13.372Z,14.39
2022-12-21T21:43:39.975Z,13.25
2022-12-21T21:46:15.187Z,12.35
2022-12-21T21:48:41.967Z,12.63
2022-12-21T21:51:11.453Z,13.65
2022-12-21T21:53:38.044Z,13.13
2022-12-21T21:56:34.506Z,12.66
2022-12-21T21:59:01.325Z,13.31
2022-12-21T22:01:28.177Z,12.69
2022-12-21T22:03:55.122Z,13.10
2022-12-21T22:06:22.345Z,13.29
2022-12-21T22:08:49.097Z,13.80
2022-12-21T22:11:16.595Z,13.72
2022-12-21T22:13:43.262Z,13.37
2022-12-21T22:16:38.121Z,13.25
2022-12-21T22:19:25.548Z,13.16
2022-12-21T22:21:43.285Z,12.41
2022-12-21T22:24:10.054Z,12.71
2022-12-21T22:26:43.816Z,12.27
2022-12-21T22:29:40.165Z,13.46
2022-12-21T22:32:13.126Z,12.31
2022-12-21T22:34:44.567Z,12.25
2022-12-21T22:37:11.188Z,12.25
2022-12-21T22:39:37.793Z,12.27
2022-12-21T22:42:05.327Z,11.80
2022-12-21T22:44:31.966Z,11.91
2022-12-21T22:46:58.623Z,11.23
2022-12-21T22:49:25.273Z,11.55
2022-12-21T22:51:51.872Z,11.07
2022-12-21T22:54:18.513Z,11.29
2022-12-21T22:56:45.117Z,10.67
2022-12-21T22:59:13.349Z,11.53
2022-12-21T23:01:41.043Z,11.32
2022-12-21T23:04:18.577Z,11.22
2022-12-21T23:06:45.470Z,11.00
2022-12-21T23:09:12.075Z,10.81
2022-12-21T23:11:40.941Z,10.93
2022-12-21T23:14:18.260Z,10.45
2022-12-21T23:16:44.961Z,9.71
2022-12-21T23:19:12.286Z,9.43
2022-12-21T23:21:38.894Z,9.84
2022-12-21T23:24:09.867Z,9.77
2022-12-21T23:26:36.502Z,8.95
2022-12-21T23:29:03.752Z,8.75
2022-12-21T23:31:30.456Z,8.95
2022-12-21T23:33:57.127Z,8.59
2022-12-21T23:36:33.076Z,8.61
2022-12-21T23:38:59.705Z,8.33
2022-12-21T23:41:26.352Z,8.37
2022-12-21T23:43:53.045Z,8.69
2022-12-21T23:46:19.672Z,9.00
2022-12-21T23:48:46.296Z,8.90
2022-12-21T23:51:12.763Z,8.58
2022-12-21T23:53:39.424Z,9.22
2022-12-21T23:56:06.455Z,8.59
2022-12-21T23:58:33.137Z,8.58
